Time;durP1;ratioP1;P1;durP2;ratioP2;P2;SDS_P1;SDS_P2;PMS_P1;PMS_P2;Temp;Humidity;BMP_temperature;BMP_pressure;BME280_temperature;BME280_humidity;BME280_pressure;Samples;Min_cycle;Max_cycle;Signal;HPM_P1;HPM_P2
2023/07/11 04:02:16;;;;;;;4.30;4.07;;;;;;;;;;4975790;28;20210;-66
2023/07/11 04:04:43;;;;;;;4.65;4.25;;;;;;;;;;4975411;28;20219;-66
2023/07/11 04:07:10;;;;;;;4.22;4.03;;;;;;;;;;4975558;28;20203;-66
2023/07/11 04:09:37;;;;;;;4.50;4.20;;;;;;;;;;4975464;28;20226;-66
2023/07/11 04:12:04;;;;;;;3.85;3.65;;;;;;;;;;4976112;28;20211;-66
2023/07/11 04:14:31;;;;;;;4.18;3.95;;;;;;;;;;4975449;28;20218;-66
2023/07/11 04:16:58;;;;;;;4.22;3.90;;;;;;;;;;4975332;28;20717;-67
2023/07/11 04:19:26;;;;;;;4.15;3.85;;;;;;;;;;4975385;28;20226;-67
2023/07/11 04:21:53;;;;;;;3.95;3.75;;;;;;;;;;4975457;28;20207;-67
2023/07/11 04:24:20;;;;;;;4.10;3.88;;;;;;;;;;4975529;28;20207;-67
2023/07/11 04:26:48;;;;;;;4.22;4.03;;;;;;;;;;4975402;28;20270;-66
2023/07/11 04:29:15;;;;;;;4.20;4.00;;;;;;;;;;4975431;28;20223;-66
2023/07/11 04:31:42;;;;;;;4.18;3.90;;;;;;;;;;4974837;28;20670;-66
2023/07/11 04:34:09;;;;;;;4.20;3.90;;;;;;;;;;4975320;28;20207;-67
2023/07/11 04:36:37;;;;;;;3.90;3.70;;;;;;;;;;4975137;28;20219;-67
2023/07/11 04:39:04;;;;;;;4.05;3.85;;;;;;;;;;4975145;28;20223;-67
2023/07/11 04:41:31;;;;;;;3.70;3.50;;;;;;;;;;4975713;28;20238;-68
2023/07/11 04:43:58;;;;;;;3.92;3.70;;;;;;;;;;4974814;28;20206;-67
2023/07/11 04:46:25;;;;;;;4.45;4.03;;;;;;;;;;4975229;28;20195;-67
2023/07/11 04:48:52;;;;;;;3.95;3.65;;;;;;;;;;4974930;28;20277;-67
2023/07/11 04:51:19;;;;;;;4.13;3.92;;;;;;;;;;4974303;28;20263;-67
2023/07/11 04:53:48;;;;;;;3.80;3.60;;;;;;;;;;4974982;28;20207;-67
2023/07/11 04:56:15;;;;;;;4.43;4.13;;;;;;;;;;4975190;28;20218;-66
2023/07/11 04:58:42;;;;;;;4.70;4.30;;;;;;;;;;4975153;28;20231;-66
2023/07/11 05:01:11;;;;;;;4.38;3.95;;;;;;;;;;4975096;28;20217;-66
2023/07/11 05:03:38;;;;;;;4.70;4.30;;;;;;;;;;4974849;28;20226;-67
2023/07/11 05:06:06;;;;;;;4.47;4.18;;;;;;;;;;4974876;28;20582;-68
2023/07/11 05:08:33;;;;;;;4.95;4.53;;;;;;;;;;4974737;28;20218;-68
2023/07/11 05:11:02;;;;;;;4.50;4.20;;;;;;;;;;4974743;28;20211;-68
2023/07/11 05:13:29;;;;;;;4.43;4.13;;;;;;;;;;4974967;28;20206;-69
2023/07/11 05:15:59;;;;;;;4.40;4.20;;;;;;;;;;4974737;28;20306;-70
2023/07/11 05:18:26;;;;;;;4.53;4.22;;;;;;;;;;4974919;28;20234;-70
2023/07/11 05:20:54;;;;;;;3.97;3.78;;;;;;;;;;4974712;28;20745;-70
2023/07/11 05:23:21;;;;;;;4.50;4.20;;;;;;;;;;4974349;28;20238;-69
2023/07/11 05:25:48;;;;;;;5.22;4.55;;;;;;;;;;4974863;28;20247;-70
2023/07/11 11:11:07;;;;;;;5.60;5.10;;;;;;;;;;5333428;23;20226;-72
2023/07/11 11:13:40;;;;;;;5.68;5.25;;;;;;;;;;4956894;29;20215;-72
2023/07/11 11:16:12;;;;;;;6.20;5.10;;;;;;;;;;4957478;29;20239;-71
2023/07/11 11:18:47;;;;;;;6.10;5.53;;;;;;;;;;4957087;29;20639;-71
2023/07/11 11:21:19;;;;;;;5.15;4.72;;;;;;;;;;4956850;29;20219;-72
2023/07/11 11:23:56;;;;;;;5.90;4.72;;;;;;;;;;4957296;29;20192;-71
2023/07/11 11:26:32;;;;;;;7.28;5.43;;;;;;;;;;4992463;23;20245;-68
2023/07/11 11:29:01;;;;;;;5.15;4.75;;;;;;;;;;4990196;28;20191;-68
2023/07/11 11:31:29;;;;;;;5.10;4.70;;;;;;;;;;4990038;28;20199;-68
2023/07/11 11:34:08;;;;;;;4.90;4.40;;;;;;;;;;4980286;28;20207;-68
2023/07/11 11:36:41;;;;;;;4.93;4.63;;;;;;;;;;4980644;28;20633;-69
2023/07/11 11:39:15;;;;;;;5.97;4.57;;;;;;;;;;4981293;28;20262;-70
2023/07/11 11:41:45;;;;;;;4.88;4.53;;;;;;;;;;4981228;28;20711;-70
2023/07/11 11:44:16;;;;;;;4.82;4.43;;;;;;;;;;4979652;28;20199;-70
2023/07/11 11:46:44;;;;;;;4.90;4.53;;;;;;;;;;4980452;28;20250;-69
2023/07/11 11:49:12;;;;;;;4.55;4.30;;;;;;;;;;4980614;28;20207;-69
2023/07/11 11:51:40;;;;;;;4.22;3.90;;;;;;;;;;4979837;28;20238;-70
2023/07/11 11:54:17;;;;;;;4.47;4.15;;;;;;;;;;4978622;28;20293;-70
2023/07/11 11:56:49;;;;;;;5.13;4.63;;;;;;;;;;4979399;28;20752;-71
2023/07/11 11:59:18;;;;;;;5.50;4.90;;;;;;;;;;4978972;28;20197;-71
2023/07/11 12:01:56;;;;;;;5.28;4.80;;;;;;;;;;4978540;28;20674;-70
2023/07/11 12:04:38;;;;;;;5.13;4.45;;;;;;;;;;4977281;28;20186;-70
2023/07/11 12:07:08;;;;;;;5.57;5.07;;;;;;;;;;4976829;28;20223;-69
2023/07/11 12:09:46;;;;;;;4.80;4.50;;;;;;;;;;4980039;28;20290;-70
2023/07/11 12:12:15;;;;;;;4.82;4.43;;;;;;;;;;4980857;28;20194;-69
2023/07/11 12:14:45;;;;;;;5.00;4.57;;;;;;;;;;4980405;28;20238;-69
2023/07/11 12:17:27;;;;;;;4.93;4.43;;;;;;;;;;4980251;28;20222;-69
2023/07/11 12:19:58;;;;;;;5.25;4.75;;;;;;;;;;4979293;28;20659;-70
2023/07/11 12:22:26;;;;;;;5.55;4.88;;;;;;;;;;4980057;28;20198;-70
2023/07/11 12:25:00;;;;;;;5.72;5.20;;;;;;;;;;4979481;28;20578;-70
2023/07/11 12:27:43;;;;;;;5.38;4.88;;;;;;;;;;4979083;28;20725;-71
2023/07/11 12:30:29;;;;;;;5.05;4.55;;;;;;;;;;4979698;28;20574;-70
2023/07/11 12:32:58;;;;;;;4.57;4.25;;;;;;;;;;4979697;28;20213;-70
2023/07/11 12:35:26;;;;;;;4.47;4.18;;;;;;;;;;4977629;28;20285;-70
2023/07/11 12:38:04;;;;;;;4.97;4.65;;;;;;;;;;4975449;28;20230;-70
2023/07/11 12:40:33;;;;;;;4.80;4.50;;;;;;;;;;4975230;28;20187;-70
2023/07/11 12:43:02;;;;;;;4.60;4.15;;;;;;;;;;4975094;28;20261;-70
2023/07/11 12:45:34;;;;;;;5.07;4.68;;;;;;;;;;4975145;28;20206;-70
2023/07/11 12:48:06;;;;;;;5.15;4.65;;;;;;;;;;4975031;28;20699;-69
2023/07/11 12:50:38;;;;;;;5.18;4.70;;;;;;;;;;4976639;28;20202;-69
2023/07/11 12:53:05;;;;;;;5.32;4.95;;;;;;;;;;4978537;28;20195;-69
2023/07/11 12:55:32;;;;;;;5.38;4.88;;;;;;;;;;4977805;28;20209;-69
2023/07/11 12:57:59;;;;;;;5.30;4.93;;;;;;;;;;4974974;28;20227;-69
2023/07/11 13:00:29;;;;;;;4.57;4.22;;;;;;;;;;4974878;28;20207;-68
2023/07/11 13:02:58;;;;;;;5.50;5.00;;;;;;;;;;4974884;28;20230;-68
2023/07/11 13:05:26;;;;;;;4.18;3.88;;;;;;;;;;4974812;28;20198;-68
2023/07/11 13:07:53;;;;;;;4.75;4.35;;;;;;;;;;4974884;28;20206;-68
2023/07/11 13:10:22;;;;;;;4.70;4.40;;;;;;;;;;4975238;28;20549;-68
2023/07/11 13:12:51;;;;;;;4.65;4.25;;;;;;;;;;4980053;28;20293;-68
2023/07/11 13:15:19;;;;;;;5.00;4.57;;;;;;;;;;4981173;28;20618;-68
2023/07/11 13:17:48;;;;;;;4.65;4.35;;;;;;;;;;4981397;28;20254;-68
2023/07/11 13:20:19;;;;;;;4.70;4.30;;;;;;;;;;4981385;28;20229;-68
2023/07/11 13:22:48;;;;;;;4.75;4.25;;;;;;;;;;4981262;28;20210;-68
2023/07/11 13:25:16;;;;;;;4.90;4.40;;;;;;;;;;4981119;28;20206;-68
2023/07/11 13:27:45;;;;;;;7.07;4.28;;;;;;;;;;4981231;28;20233;-68
2023/07/11 13:30:20;;;;;;;7.68;4.63;;;;;;;;;;4981086;28;20244;-68
2023/07/11 13:32:47;;;;;;;5.82;5.10;;;;;;;;;;4980968;28;20235;-68
2023/07/11 13:35:16;;;;;;;5.30;4.90;;;;;;;;;;4981470;28;20204;-68
2023/07/11 13:37:45;;;;;;;4.57;4.28;;;;;;;;;;4980761;28;20578;-67
2023/07/11 13:40:27;;;;;;;4.40;4.10;;;;;;;;;;4980974;28;20213;-67
2023/07/11 13:42:57;;;;;;;4.68;4.38;;;;;;;;;;4980417;28;20214;-67
2023/07/11 13:45:25;;;;;;;4.47;4.18;;;;;;;;;;4980500;28;20670;-67
2023/07/11 13:47:53;;;;;;;4.50;4.10;;;;;;;;;;4980919;28;20193;-67
2023/07/11 13:50:22;;;;;;;5.10;4.60;;;;;;;;;;4980819;28;20199;-68
2023/07/11 13:52:50;;;;;;;4.47;4.18;;;;;;;;;;4980872;28;20194;-68
2023/07/11 13:55:19;;;;;;;4.30;4.10;;;;;;;;;;4980793;28;20209;-69
2023/07/11 13:57:46;;;;;;;4.63;4.32;;;;;;;;;;4980717;28;20218;-68
2023/07/11 14:00:16;;;;;;;5.00;4.50;;;;;;;;;;4980811;28;20202;-69
2023/07/11 14:02:44;;;;;;;5.00;4.60;;;;;;;;;;4980834;28;20206;-68
2023/07/11 14:05:20;;;;;;;5.47;4.82;;;;;;;;;;4980775;28;20205;-68
2023/07/11 14:07:47;;;;;;;5.25;4.82;;;;;;;;;;4981484;28;20250;-69
2023/07/11 14:10:15;;;;;;;5.60;5.07;;;;;;;;;;4980745;28;20238;-67
2023/07/11 14:12:43;;;;;;;5.28;4.88;;;;;;;;;;4980702;28;20202;-68
2023/07/11 14:15:17;;;;;;;5.78;5.22;;;;;;;;;;4980727;28;20205;-67
2023/07/11 14:17:44;;;;;;;7.03;6.43;;;;;;;;;;4980211;28;20638;-67
2023/07/11 14:20:16;;;;;;;7.10;6.05;;;;;;;;;;4980882;28;20203;-67
2023/07/11 14:22:43;;;;;;;7.07;6.47;;;;;;;;;;4980240;28;20202;-67
2023/07/11 14:25:13;;;;;;;6.55;5.85;;;;;;;;;;4977535;28;20237;-67
2023/07/11 14:27:40;;;;;;;7.60;6.38;;;;;;;;;;4976988;28;20664;-67
2023/07/11 14:30:09;;;;;;;6.63;5.88;;;;;;;;;;4977372;28;20561;-67
2023/07/11 14:32:38;;;;;;;6.38;5.80;;;;;;;;;;4977423;28;20199;-67
2023/07/11 14:35:05;;;;;;;5.95;5.45;;;;;;;;;;4977573;28;20203;-67
2023/07/11 14:37:32;;;;;;;8.40;6.00;;;;;;;;;;4977156;28;20219;-68
2023/07/11 14:39:59;;;;;;;6.47;5.78;;;;;;;;;;4977231;28;20199;-67
2023/07/11 14:42:27;;;;;;;5.65;5.18;;;;;;;;;;4977197;28;20202;-67
2023/07/11 14:44:54;;;;;;;5.90;5.25;;;;;;;;;;4977107;28;20254;-67
2023/07/11 14:47:21;;;;;;;5.90;5.45;;;;;;;;;;4976920;28;20254;-68
2023/07/11 14:49:50;;;;;;;5.60;5.18;;;;;;;;;;4977211;28;20210;-68
2023/07/11 14:52:23;;;;;;;5.30;4.90;;;;;;;;;;4977308;28;20209;-68
2023/07/11 14:54:50;;;;;;;5.18;4.78;;;;;;;;;;4976970;28;20191;-68
2023/07/11 14:57:17;;;;;;;4.78;4.38;;;;;;;;;;4976520;28;20594;-68
2023/07/11 14:59:44;;;;;;;5.05;4.55;;;;;;;;;;4976626;28;20194;-69
2023/07/11 15:02:18;;;;;;;5.07;4.10;;;;;;;;;;4976880;28;20203;-69
2023/07/11 15:04:45;;;;;;;4.05;3.65;;;;;;;;;;4976878;28;20198;-69
2023/07/11 15:07:14;;;;;;;3.80;3.58;;;;;;;;;;4976839;28;20230;-69
2023/07/11 15:09:41;;;;;;;3.55;3.35;;;;;;;;;;4976561;28;20678;-69
2023/07/11 15:12:10;;;;;;;3.65;3.35;;;;;;;;;;4976926;28;20682;-69
2023/07/11 15:14:38;;;;;;;3.67;3.38;;;;;;;;;;4976724;28;20206;-69
2023/07/11 15:17:06;;;;;;;3.35;3.15;;;;;;;;;;4976305;28;20678;-68
2023/07/11 15:19:33;;;;;;;3.55;3.35;;;;;;;;;;4976626;28;20238;-68
2023/07/11 15:22:04;;;;;;;3.80;3.50;;;;;;;;;;4976367;28;20709;-68
2023/07/11 15:24:35;;;;;;;4.00;3.70;;;;;;;;;;4978814;28;20215;-68
2023/07/11 15:27:03;;;;;;;3.58;3.38;;;;;;;;;;4980354;28;20233;-68
2023/07/11 15:29:30;;;;;;;3.60;3.30;;;;;;;;;;4980636;28;20198;-68
2023/07/11 15:31:57;;;;;;;3.70;3.50;;;;;;;;;;4981497;28;20199;-68
2023/07/11 15:34:26;;;;;;;3.72;3.47;;;;;;;;;;4978586;28;20211;-69
2023/07/11 15:36:53;;;;;;;4.00;3.70;;;;;;;;;;4976388;28;20222;-70
2023/07/11 15:39:20;;;;;;;3.63;3.42;;;;;;;;;;4976078;28;20662;-70
2023/07/11 15:41:51;;;;;;;3.67;3.10;;;;;;;;;;4975894;28;20207;-70
2023/07/11 15:44:41;;;;;;;3.30;3.10;;;;;;;;;;4975998;28;20187;-70
2023/07/11 15:47:10;;;;;;;3.80;3.60;;;;;;;;;;4975873;28;20250;-70
2023/07/11 15:49:37;;;;;;;3.63;3.42;;;;;;;;;;4976072;28;20203;-70
2023/07/11 15:52:05;;;;;;;4.57;3.10;;;;;;;;;;4976031;28;20203;-71
2023/07/11 15:54:32;;;;;;;2.75;2.65;;;;;;;;;;4975881;28;20202;-70
2023/07/11 15:57:00;;;;;;;4.20;3.97;;;;;;;;;;4975439;28;20710;-70
2023/07/11 15:59:29;;;;;;;6.18;4.35;;;;;;;;;;4975731;28;20198;-70
2023/07/11 16:01:56;;;;;;;4.68;4.18;;;;;;;;;;4975702;28;20605;-70
2023/07/11 16:04:25;;;;;;;3.70;3.50;;;;;;;;;;4975603;28;20226;-70
2023/07/11 16:06:53;;;;;;;3.00;2.90;;;;;;;;;;4975521;28;20318;-70
2023/07/11 16:09:22;;;;;;;2.85;2.75;;;;;;;;;;4975600;28;20205;-70
2023/07/11 16:11:49;;;;;;;3.63;3.05;;;;;;;;;;4975495;28;20206;-70
2023/07/11 16:14:18;;;;;;;3.33;3.13;;;;;;;;;;4975811;28;20206;-71
2023/07/11 16:16:45;;;;;;;2.90;2.72;;;;;;;;;;4975552;28;20231;-71
2023/07/11 16:19:14;;;;;;;2.83;2.63;;;;;;;;;;4975577;28;20226;-70
2023/07/11 16:21:41;;;;;;;3.03;2.92;;;;;;;;;;4975514;28;20202;-70
2023/07/11 16:24:12;;;;;;;2.95;2.75;;;;;;;;;;4975478;28;20203;-70
2023/07/11 16:26:39;;;;;;;2.80;2.70;;;;;;;;;;4974954;28;20745;-70
2023/07/11 16:29:06;;;;;;;3.70;3.45;;;;;;;;;;4975048;28;20668;-71
2023/07/11 16:31:35;;;;;;;3.53;3.20;;;;;;;;;;4975316;28;20573;-70
2023/07/11 16:34:02;;;;;;;3.38;3.17;;;;;;;;;;4975123;28;20693;-71
2023/07/11 16:36:29;;;;;;;3.63;3.42;;;;;;;;;;4975374;28;20226;-70
2023/07/11 16:38:56;;;;;;;3.35;3.15;;;;;;;;;;4974891;28;20702;-70
2023/07/11 16:41:23;;;;;;;3.50;3.20;;;;;;;;;;4975196;28;20199;-70
2023/07/11 16:43:51;;;;;;;3.38;3.17;;;;;;;;;;4974939;28;20199;-70
2023/07/11 16:46:19;;;;;;;3.55;3.35;;;;;;;;;;4974430;28;20222;-70
2023/07/11 16:48:48;;;;;;;3.47;3.28;;;;;;;;;;4975249;28;20286;-71
2023/07/11 16:51:21;;;;;;;4.57;3.38;;;;;;;;;;4975044;28;20202;-70
2023/07/11 16:53:48;;;;;;;3.50;3.25;;;;;;;;;;4975163;28;20206;-71
2023/07/11 16:56:16;;;;;;;3.40;3.20;;;;;;;;;;4974944;28;20234;-70
2023/07/11 16:58:43;;;;;;;5.55;3.70;;;;;;;;;;4974794;28;20219;-71
2023/07/11 17:01:13;;;;;;;4.18;3.90;;;;;;;;;;4975095;28;20202;-71
2023/07/11 17:03:40;;;;;;;3.38;3.28;;;;;;;;;;4974720;28;20596;-71
2023/07/11 17:06:13;;;;;;;3.47;3.28;;;;;;;;;;4975100;28;20226;-71
2023/07/11 17:08:40;;;;;;;3.45;3.25;;;;;;;;;;4974832;28;20183;-71
2023/07/11 17:11:07;;;;;;;3.25;3.05;;;;;;;;;;4974620;28;20541;-71
2023/07/11 17:13:34;;;;;;;3.72;3.40;;;;;;;;;;4974787;28;20225;-70
2023/07/11 17:16:03;;;;;;;3.05;2.95;;;;;;;;;;4974635;28;20273;-70
2023/07/11 17:18:30;;;;;;;3.00;2.90;;;;;;;;;;4974620;28;20623;-70
2023/07/11 17:20:57;;;;;;;2.55;2.45;;;;;;;;;;4974802;28;20206;-70
2023/07/11 17:23:26;;;;;;;2.63;2.53;;;;;;;;;;4974458;28;20212;-70
2023/07/11 17:25:54;;;;;;;3.60;3.30;;;;;;;;;;4974835;28;20594;-68
2023/07/11 17:28:23;;;;;;;2.88;2.65;;;;;;;;;;4974922;28;20190;-68
2023/07/11 17:30:50;;;;;;;2.80;2.65;;;;;;;;;;4974592;28;20207;-66
2023/07/11 17:33:18;;;;;;;3.97;3.13;;;;;;;;;;4974652;28;20202;-67
2023/07/11 17:35:46;;;;;;;3.55;3.03;;;;;;;;;;4974547;28;20219;-67
2023/07/11 17:38:13;;;;;;;5.05;3.10;;;;;;;;;;4974580;28;20229;-68
2023/07/11 17:40:43;;;;;;;3.17;2.95;;;;;;;;;;4974736;28;20207;-68
2023/07/11 17:43:10;;;;;;;2.67;2.58;;;;;;;;;;4974701;28;20207;-68
2023/07/11 17:45:37;;;;;;;2.60;2.40;;;;;;;;;;4974552;28;20187;-69
2023/07/11 17:48:05;;;;;;;3.15;2.95;;;;;;;;;;4974552;28;20221;-68
2023/07/11 17:50:32;;;;;;;2.45;2.35;;;;;;;;;;4974669;28;20257;-68
2023/07/11 17:53:00;;;;;;;2.70;2.60;;;;;;;;;;4974505;28;20203;-68
2023/07/11 17:55:27;;;;;;;2.30;2.20;;;;;;;;;;4974375;28;20676;-69
2023/07/11 17:57:56;;;;;;;2.45;2.35;;;;;;;;;;4975493;28;20219;-69
2023/07/11 18:00:23;;;;;;;2.22;2.13;;;;;;;;;;4978905;28;20285;-68
2023/07/11 18:02:50;;;;;;;2.70;2.60;;;;;;;;;;4978065;28;20229;-68
2023/07/11 18:05:19;;;;;;;2.58;2.42;;;;;;;;;;4977981;28;20309;-69
2023/07/11 18:07:46;;;;;;;2.95;2.80;;;;;;;;;;4978009;28;20674;-69
2023/07/11 18:10:21;;;;;;;2.45;2.35;;;;;;;;;;4977849;28;20211;-69
2023/07/11 18:12:48;;;;;;;2.33;2.22;;;;;;;;;;4977908;28;20205;-69
2023/07/11 18:15:17;;;;;;;2.92;2.83;;;;;;;;;;4977686;28;20214;-68
2023/07/11 18:17:44;;;;;;;2.45;2.35;;;;;;;;;;4977761;28;20234;-67
2023/07/11 18:20:14;;;;;;;2.45;2.35;;;;;;;;;;4977908;28;20210;-68
2023/07/11 18:22:41;;;;;;;2.47;2.38;;;;;;;;;;4977514;28;20662;-68
2023/07/11 18:25:09;;;;;;;2.72;2.63;;;;;;;;;;4977411;28;20266;-67
2023/07/11 18:27:36;;;;;;;2.90;2.65;;;;;;;;;;4977473;28;20253;-67
2023/07/11 18:30:04;;;;;;;2.80;2.60;;;;;;;;;;4977531;28;20206;-66
2023/07/11 18:32:38;;;;;;;3.47;3.17;;;;;;;;;;4977465;28;20289;-68
2023/07/11 18:35:06;;;;;;;3.38;3.08;;;;;;;;;;4977435;28;20669;-66
2023/07/11 18:37:33;;;;;;;3.20;3.00;;;;;;;;;;4977232;28;20227;-67
2023/07/11 18:40:00;;;;;;;2.80;2.70;;;;;;;;;;4976944;28;20590;-67
2023/07/11 18:42:28;;;;;;;2.70;2.60;;;;;;;;;;4977010;28;20709;-67
2023/07/11 18:44:55;;;;;;;2.83;2.70;;;;;;;;;;4977136;28;20210;-67
2023/07/11 18:47:23;;;;;;;3.22;3.03;;;;;;;;;;4977166;28;20234;-67
2023/07/11 18:49:52;;;;;;;3.00;2.90;;;;;;;;;;4977104;28;20203;-67
2023/07/11 18:52:21;;;;;;;3.63;3.42;;;;;;;;;;4976830;28;20690;-68
2023/07/11 18:54:49;;;;;;;3.47;3.20;;;;;;;;;;4976840;28;20666;-68
2023/07/11 18:57:16;;;;;;;3.45;3.25;;;;;;;;;;4976947;28;20351;-67
2023/07/11 18:59:44;;;;;;;3.08;2.88;;;;;;;;;;4976981;28;20249;-67
2023/07/11 19:02:19;;;;;;;3.05;2.95;;;;;;;;;;4976992;28;20230;-67
2023/07/11 19:04:46;;;;;;;2.80;2.70;;;;;;;;;;4976946;28;20195;-67
2023/07/11 19:07:17;;;;;;;3.50;3.20;;;;;;;;;;4976836;28;20226;-67
2023/07/11 19:09:44;;;;;;;3.70;3.50;;;;;;;;;;4976154;28;20203;-67
2023/07/11 19:12:21;;;;;;;3.42;3.22;;;;;;;;;;4976859;28;20238;-67
2023/07/11 19:14:48;;;;;;;3.47;3.28;;;;;;;;;;4976824;28;20199;-67
2023/07/11 19:17:27;;;;;;;4.00;3.78;;;;;;;;;;4977041;28;20234;-67
2023/07/11 19:19:54;;;;;;;3.53;3.33;;;;;;;;;;4976597;28;20211;-67
2023/07/11 19:22:22;;;;;;;3.38;3.17;;;;;;;;;;4976798;28;20207;-67
2023/07/11 19:24:49;;;;;;;3.75;3.53;;;;;;;;;;4976455;28;20199;-67
2023/07/11 19:27:16;;;;;;;3.60;3.40;;;;;;;;;;4976230;28;20234;-67
2023/07/11 19:29:44;;;;;;;4.15;3.78;;;;;;;;;;4976404;28;20210;-67
2023/07/11 19:32:11;;;;;;;4.25;3.70;;;;;;;;;;4976086;28;20209;-67
2023/07/11 19:34:40;;;;;;;3.10;3.00;;;;;;;;;;4976300;28;20304;-65
2023/07/11 19:37:10;;;;;;;3.25;3.05;;;;;;;;;;4976395;28;20249;-66
2023/07/11 19:39:38;;;;;;;3.40;3.20;;;;;;;;;;4976191;28;20219;-65
2023/07/11 19:42:06;;;;;;;3.38;3.17;;;;;;;;;;4976376;28;20214;-65
2023/07/11 19:44:33;;;;;;;3.40;3.20;;;;;;;;;;4975793;28;20674;-67
2023/07/11 19:47:00;;;;;;;3.35;3.15;;;;;;;;;;4976139;28;20230;-66
2023/07/11 19:49:27;;;;;;;2.70;2.60;;;;;;;;;;4975991;28;20213;-66
2023/07/11 19:51:54;;;;;;;2.90;2.70;;;;;;;;;;4975616;28;20694;-66
2023/07/11 19:54:21;;;;;;;2.78;2.67;;;;;;;;;;4975937;28;20233;-66
2023/07/11 19:56:49;;;;;;;4.07;3.67;;;;;;;;;;4976062;28;20254;-66
2023/07/11 19:59:17;;;;;;;9.60;4.18;;;;;;;;;;4975699;28;20222;-66
2023/07/11 20:01:44;;;;;;;8.70;3.40;;;;;;;;;;4975424;28;20693;-65
2023/07/11 20:04:11;;;;;;;5.65;2.90;;;;;;;;;;4975701;28;20206;-66
2023/07/11 20:06:38;;;;;;;9.70;3.25;;;;;;;;;;4975649;28;20227;-66
2023/07/11 20:09:05;;;;;;;3.47;2.55;;;;;;;;;;4975562;28;20205;-66
2023/07/11 20:11:32;;;;;;;3.83;2.30;;;;;;;;;;4975153;28;20685;-66
2023/07/11 20:14:00;;;;;;;4.60;2.35;;;;;;;;;;4975411;28;20269;-66
2023/07/11 20:16:28;;;;;;;2.45;1.85;;;;;;;;;;4975056;28;20722;-67
2023/07/11 20:18:55;;;;;;;2.92;2.10;;;;;;;;;;4975354;28;20626;-66
2023/07/11 20:21:23;;;;;;;2.97;2.03;;;;;;;;;;4975066;28;20598;-66
2023/07/11 20:23:50;;;;;;;2.42;1.85;;;;;;;;;;4974966;28;20202;-66
2023/07/11 20:26:19;;;;;;;2.10;1.55;;;;;;;;;;4974911;28;20237;-66
2023/07/11 20:28:46;;;;;;;1.80;1.75;;;;;;;;;;4975406;28;20210;-66
2023/07/11 20:31:15;;;;;;;1.80;1.70;;;;;;;;;;4975437;28;20294;-66
2023/07/11 20:33:42;;;;;;;1.80;1.70;;;;;;;;;;4976049;28;20207;-67
2023/07/11 20:36:14;;;;;;;2.85;1.10;;;;;;;;;;4974742;28;20678;-66
2023/07/11 20:38:41;;;;;;;1.13;1.13;;;;;;;;;;4975151;28;20211;-66
2023/07/11 20:41:10;;;;;;;1.20;1.20;;;;;;;;;;4975149;28;20610;-66
2023/07/11 20:43:37;;;;;;;1.38;1.38;;;;;;;;;;4975046;28;20207;-66
2023/07/11 20:46:11;;;;;;;1.13;1.13;;;;;;;;;;4974971;28;20226;-66
2023/07/11 20:48:39;;;;;;;1.27;1.27;;;;;;;;;;4975073;28;20210;-66
2023/07/11 20:51:07;;;;;;;1.13;1.13;;;;;;;;;;4975546;28;20203;-66
2023/07/11 20:53:34;;;;;;;1.13;1.10;;;;;;;;;;4974574;28;20562;-66
2023/07/11 20:56:01;;;;;;;1.10;1.10;;;;;;;;;;4974663;28;20234;-67
2023/07/11 20:58:29;;;;;;;1.30;1.30;;;;;;;;;;4974732;28;20202;-66
2023/07/11 21:00:56;;;;;;;1.13;1.13;;;;;;;;;;4974854;28;20205;-66
